sensor_id;sensor_type;location;lat;lon;timestamp;pressure;altitude;pressure_sealevel;temperature;humidity
57574;BME280;63722;48.858;21.906;2022-10-16T00:00:35;99050.84;;;19.41;49.95
57574;BME280;63722;48.858;21.906;2022-10-16T00:03:01;99045.53;;;19.41;50.12
57574;BME280;63722;48.858;21.906;2022-10-16T00:05:27;99043.69;;;19.42;50.25
57574;BME280;63722;48.858;21.906;2022-10-16T00:07:52;99041.25;;;19.40;50.15
57574;BME280;63722;48.858;21.906;2022-10-16T00:10:17;99043.31;;;19.38;49.98
57574;BME280;63722;48.858;21.906;2022-10-16T00:12:43;99047.59;;;19.39;50.12
57574;BME280;63722;48.858;21.906;2022-10-16T00:15:09;99051.91;;;19.40;49.94
57574;BME280;63722;48.858;21.906;2022-10-16T00:17:34;99047.59;;;19.39;50.05
57574;BME280;63722;48.858;21.906;2022-10-16T00:19:59;99053.72;;;19.40;50.06
57574;BME280;63722;48.858;21.906;2022-10-16T00:22:25;99044.38;;;19.37;50.17
57574;BME280;63722;48.858;21.906;2022-10-16T00:24:51;99051.31;;;19.38;49.80
57574;BME280;63722;48.858;21.906;2022-10-16T00:27:16;99049.47;;;19.39;50.14
57574;BME280;63722;48.858;21.906;2022-10-16T00:29:42;99050.28;;;19.39;50.13
57574;BME280;63722;48.858;21.906;2022-10-16T00:32:08;99052.94;;;19.39;50.17
57574;BME280;63722;48.858;21.906;2022-10-16T00:34:33;99048.88;;;19.37;50.12
57574;BME280;63722;48.858;21.906;2022-10-16T00:36:59;99053.97;;;19.38;50.14
57574;BME280;63722;48.858;21.906;2022-10-16T00:39:24;99056.63;;;19.38;50.13
57574;BME280;63722;48.858;21.906;2022-10-16T00:41:50;99057.91;;;19.36;50.01
57574;BME280;63722;48.858;21.906;2022-10-16T00:44:48;99056.63;;;19.38;49.95
57574;BME280;63722;48.858;21.906;2022-10-16T00:47:26;99060.34;;;19.37;50.02
57574;BME280;63722;48.858;21.906;2022-10-16T00:49:57;99063.56;;;19.39;50.11
57574;BME280;63722;48.858;21.906;2022-10-16T00:52:23;99065.66;;;19.37;50.02
57574;BME280;63722;48.858;21.906;2022-10-16T00:54:49;99060.34;;;19.37;49.92
57574;BME280;63722;48.858;21.906;2022-10-16T00:57:16;99063.22;;;19.36;49.95
57574;BME280;63722;48.858;21.906;2022-10-16T00:59:42;99069.34;;;19.36;50.06
57574;BME280;63722;48.858;21.906;2022-10-16T01:02:12;99065.88;;;19.36;50.02
57574;BME280;63722;48.858;21.906;2022-10-16T01:04:42;99072.22;;;19.35;50.14
57574;BME280;63722;48.858;21.906;2022-10-16T01:33:02;99078.00;;;19.31;49.92
57574;BME280;63722;48.858;21.906;2022-10-16T01:35:41;99079.63;;;19.32;49.97
57574;BME280;63722;48.858;21.906;2022-10-16T01:38:21;99091.63;;;19.35;50.04
57574;BME280;63722;48.858;21.906;2022-10-16T01:40:59;99098.81;;;19.35;49.94
57574;BME280;63722;48.858;21.906;2022-10-16T01:43:43;99098.00;;;19.34;50.04
57574;BME280;63722;48.858;21.906;2022-10-16T01:46:10;99103.34;;;19.34;50.13
57574;BME280;63722;48.858;21.906;2022-10-16T01:48:36;99103.34;;;19.34;50.15
57574;BME280;63722;48.858;21.906;2022-10-16T01:51:08;99108.66;;;19.34;50.05
57574;BME280;63722;48.858;21.906;2022-10-16T01:53:36;99113.13;;;19.33;50.17
57574;BME280;63722;48.858;21.906;2022-10-16T01:56:04;99113.97;;;19.34;50.16
57574;BME280;63722;48.858;21.906;2022-10-16T01:58:34;99122.75;;;19.35;50.17
57574;BME280;63722;48.858;21.906;2022-10-16T02:01:04;99129.09;;;19.33;50.16
57574;BME280;63722;48.858;21.906;2022-10-16T02:03:33;99125.63;;;19.33;50.04
57574;BME280;63722;48.858;21.906;2022-10-16T02:05:59;99120.75;;;19.30;50.20
57574;BME280;63722;48.858;21.906;2022-10-16T02:08:27;99125.63;;;19.33;50.04
57574;BME280;63722;48.858;21.906;2022-10-16T02:10:55;99125.06;;;19.31;50.19
57574;BME280;63722;48.858;21.906;2022-10-16T02:13:26;99122.97;;;19.33;50.11
57574;BME280;63722;48.858;21.906;2022-10-16T02:15:52;99121.34;;;19.32;50.19
57574;BME280;63722;48.858;21.906;2022-10-16T02:18:18;99118.69;;;19.32;50.26
57574;BME280;63722;48.858;21.906;2022-10-16T02:23:56;99112.34;;;19.33;49.91
57574;BME280;63722;48.858;21.906;2022-10-16T02:26:30;99114.19;;;19.32;50.06
57574;BME280;63722;48.858;21.906;2022-10-16T02:29:02;99109.91;;;19.31;49.93
57574;BME280;63722;48.858;21.906;2022-10-16T02:31:35;99113.34;;;19.32;50.06
57574;BME280;63722;48.858;21.906;2022-10-16T02:34:02;99107.25;;;19.31;50.17
57574;BME280;63722;48.858;21.906;2022-10-16T02:36:29;99110.69;;;19.32;50.05
57574;BME280;63722;48.858;21.906;2022-10-16T02:38:55;99102.38;;;19.28;50.08
57574;BME280;63722;48.858;21.906;2022-10-16T02:41:21;99114.41;;;19.31;50.11
57574;BME280;63722;48.858;21.906;2022-10-16T02:43:47;99111.75;;;19.31;49.98
57574;BME280;63722;48.858;21.906;2022-10-16T02:46:12;99111.75;;;19.31;50.03
57574;BME280;63722;48.858;21.906;2022-10-16T02:48:38;99109.53;;;19.28;50.23
57574;BME280;63722;48.858;21.906;2022-10-16T02:51:04;99119.97;;;19.29;49.96
57574;BME280;63722;48.858;21.906;2022-10-16T02:53:30;99125.06;;;19.31;50.06
57574;BME280;63722;48.858;21.906;2022-10-16T02:55:55;99126.88;;;19.30;50.08
57574;BME280;63722;48.858;21.906;2022-10-16T02:58:20;99118.91;;;19.30;50.11
57574;BME280;63722;48.858;21.906;2022-10-16T03:00:46;99132.19;;;19.30;50.18
57574;BME280;63722;48.858;21.906;2022-10-16T03:03:11;99134.06;;;19.30;50.11
57574;BME280;63722;48.858;21.906;2022-10-16T03:05:37;99134.06;;;19.30;50.04
57574;BME280;63722;48.858;21.906;2022-10-16T03:08:02;99137.75;;;19.29;50.03
57574;BME280;63722;48.858;21.906;2022-10-16T03:10:28;99139.38;;;19.30;50.05
57574;BME280;63722;48.858;21.906;2022-10-16T03:12:53;99145.50;;;19.30;50.27
57574;BME280;63722;48.858;21.906;2022-10-16T03:15:18;99142.25;;;19.28;50.14
57574;BME280;63722;48.858;21.906;2022-10-16T03:17:44;99149.22;;;19.29;50.12
57574;BME280;63722;48.858;21.906;2022-10-16T03:20:09;99147.34;;;19.30;49.98
57574;BME280;63722;48.858;21.906;2022-10-16T03:22:35;99151.03;;;19.29;50.03
57574;BME280;63722;48.858;21.906;2022-10-16T03:25:00;99152.91;;;19.28;49.87
57574;BME280;63722;48.858;21.906;2022-10-16T03:27:25;99153.69;;;19.29;50.07
57574;BME280;63722;48.858;21.906;2022-10-16T03:29:51;99158.00;;;19.30;50.04
57574;BME280;63722;48.858;21.906;2022-10-16T03:32:17;99145.13;;;19.27;50.09
57574;BME280;63722;48.858;21.906;2022-10-16T03:34:43;99151.25;;;19.27;50.01
57574;BME280;63722;48.858;21.906;2022-10-16T03:37:08;99152.09;;;19.28;50.19
57574;BME280;63722;48.858;21.906;2022-10-16T03:39:34;99152.09;;;19.28;49.99
57574;BME280;63722;48.858;21.906;2022-10-16T03:41:59;99152.09;;;19.28;49.92
57574;BME280;63722;48.858;21.906;2022-10-16T03:44:25;99153.91;;;19.27;49.98
57574;BME280;63722;48.858;21.906;2022-10-16T03:46:50;99153.91;;;19.27;49.93
57574;BME280;63722;48.858;21.906;2022-10-16T03:49:15;99161.66;;;19.29;50.10
57574;BME280;63722;48.858;21.906;2022-10-16T03:51:41;99163.53;;;19.28;50.14
57574;BME280;63722;48.858;21.906;2022-10-16T03:54:06;99156.56;;;19.27;49.93
57574;BME280;63722;48.858;21.906;2022-10-16T03:56:31;99159.25;;;19.27;50.09
57574;BME280;63722;48.858;21.906;2022-10-16T03:58:57;99166.41;;;19.27;49.98
57574;BME280;63722;48.858;21.906;2022-10-16T04:01:22;99157.47;;;19.21;50.21
57574;BME280;63722;48.858;21.906;2022-10-16T04:03:48;99168.25;;;19.26;49.68
57574;BME280;63722;48.858;21.906;2022-10-16T04:06:13;99161.09;;;19.27;50.02
57574;BME280;63722;48.858;21.906;2022-10-16T04:08:38;99166.41;;;19.27;50.08
57574;BME280;63722;48.858;21.906;2022-10-16T04:11:04;99165.84;;;19.25;50.15
57574;BME280;63722;48.858;21.906;2022-10-16T04:13:30;99168.50;;;19.25;50.16
57574;BME280;63722;48.858;21.906;2022-10-16T04:15:55;99171.72;;;19.27;50.05
57574;BME280;63722;48.858;21.906;2022-10-16T04:18:20;99180.72;;;19.26;49.96
57574;BME280;63722;48.858;21.906;2022-10-16T04:20:46;99182.38;;;19.27;50.09
57574;BME280;63722;48.858;21.906;2022-10-16T04:23:11;99179.13;;;19.25;50.02
57574;BME280;63722;48.858;21.906;2022-10-16T04:25:37;99182.38;;;19.27;50.03
57574;BME280;63722;48.858;21.906;2022-10-16T04:28:02;99182.59;;;19.25;49.76
57574;BME280;63722;48.858;21.906;2022-10-16T04:30:28;99182.38;;;19.27;50.10
57574;BME280;63722;48.858;21.906;2022-10-16T04:32:53;99186.50;;;19.23;50.12
57574;BME280;63722;48.858;21.906;2022-10-16T04:35:19;99183.63;;;19.24;50.18
57574;BME280;63722;48.858;21.906;2022-10-16T04:37:45;99177.28;;;19.25;50.04
57574;BME280;63722;48.858;21.906;2022-10-16T04:40:11;99182.00;;;19.23;50.31
57574;BME280;63722;48.858;21.906;2022-10-16T04:42:36;99189.75;;;19.25;50.03
57574;BME280;63722;48.858;21.906;2022-10-16T04:45:02;99179.13;;;19.25;49.94
57574;BME280;63722;48.858;21.906;2022-10-16T04:47:28;99186.88;;;19.26;50.08
57574;BME280;63722;48.858;21.906;2022-10-16T04:49:53;99180.94;;;19.24;50.15
57574;BME280;63722;48.858;21.906;2022-10-16T04:52:19;99184.44;;;19.25;49.89
57574;BME280;63722;48.858;21.906;2022-10-16T04:54:46;99195.09;;;19.25;49.99
57574;BME280;63722;48.858;21.906;2022-10-16T04:57:12;99181.19;;;19.23;50.01
57574;BME280;63722;48.858;21.906;2022-10-16T04:59:37;99192.63;;;19.23;50.08
57574;BME280;63722;48.858;21.906;2022-10-16T05:02:03;99188.13;;;19.24;50.24
57574;BME280;63722;48.858;21.906;2022-10-16T05:04:28;99195.09;;;19.25;50.01
57574;BME280;63722;48.858;21.906;2022-10-16T05:06:54;99201.41;;;19.24;50.03
57574;BME280;63722;48.858;21.906;2022-10-16T05:09:19;99204.88;;;19.24;49.89
57574;BME280;63722;48.858;21.906;2022-10-16T05:11:44;99216.34;;;19.25;49.97
57574;BME280;63722;48.858;21.906;2022-10-16T05:14:10;99211.03;;;19.25;50.02
57574;BME280;63722;48.858;21.906;2022-10-16T05:16:35;99212.63;;;19.26;50.01
57574;BME280;63722;48.858;21.906;2022-10-16T05:19:00;99206.53;;;19.25;49.88
57574;BME280;63722;48.858;21.906;2022-10-16T05:21:26;99220.63;;;19.26;49.99
57574;BME280;63722;48.858;21.906;2022-10-16T05:23:53;99222.25;;;19.27;49.94
57574;BME280;63722;48.858;21.906;2022-10-16T05:26:19;99218.56;;;19.28;50.05
57574;BME280;63722;48.858;21.906;2022-10-16T05:28:44;99210.28;;;19.18;49.92
57574;BME280;63722;48.858;21.906;2022-10-16T05:31:10;99236.13;;;19.29;49.90
57574;BME280;63722;48.858;21.906;2022-10-16T05:33:35;99239.00;;;19.27;49.85
57574;BME280;63722;48.858;21.906;2022-10-16T05:36:06;99239.63;;;19.29;49.89
57574;BME280;63722;48.858;21.906;2022-10-16T05:38:33;99252.06;;;19.29;49.94
57574;BME280;63722;48.858;21.906;2022-10-16T05:40:58;99263.91;;;19.33;49.91
57574;BME280;63722;48.858;21.906;2022-10-16T05:43:23;99258.00;;;19.31;49.63
57574;BME280;63722;48.858;21.906;2022-10-16T05:46:00;99275.34;;;19.33;49.67
57574;BME280;63722;48.858;21.906;2022-10-16T05:48:26;99271.00;;;19.39;49.81
57574;BME280;63722;48.858;21.906;2022-10-16T05:51:01;99272.41;;;19.42;49.59
57574;BME280;63722;48.858;21.906;2022-10-16T05:53:28;99281.13;;;19.49;49.37
57574;BME280;63722;48.858;21.906;2022-10-16T05:55:55;99276.19;;;19.53;49.21
57574;BME280;63722;48.858;21.906;2022-10-16T05:58:22;99282.66;;;19.57;49.42
57574;BME280;63722;48.858;21.906;2022-10-16T06:00:59;99283.41;;;19.64;49.26
57574;BME280;63722;48.858;21.906;2022-10-16T06:03:25;99288.75;;;19.64;49.12
57574;BME280;63722;48.858;21.906;2022-10-16T06:05:51;99298.13;;;19.66;49.05
57574;BME280;63722;48.858;21.906;2022-10-16T06:08:17;99291.09;;;19.72;49.16
57574;BME280;63722;48.858;21.906;2022-10-16T06:10:43;99291.69;;;19.74;49.09
57574;BME280;63722;48.858;21.906;2022-10-16T06:13:09;99285.31;;;19.75;49.03
57574;BME280;63722;48.858;21.906;2022-10-16T06:15:35;99291.88;;;19.79;49.06
57574;BME280;63722;48.858;21.906;2022-10-16T06:18:00;99293.50;;;19.80;48.92
57574;BME280;63722;48.858;21.906;2022-10-16T06:20:26;99293.06;;;19.83;48.94
57574;BME280;63722;48.858;21.906;2022-10-16T06:22:51;99293.63;;;19.85;48.87
57574;BME280;63722;48.858;21.906;2022-10-16T06:25:16;99295.03;;;19.88;48.85
57574;BME280;63722;48.858;21.906;2022-10-16T06:27:42;99289.94;;;19.87;48.98
57574;BME280;63722;48.858;21.906;2022-10-16T06:30:08;99297.69;;;19.88;49.05
57574;BME280;63722;48.858;21.906;2022-10-16T06:32:33;99290.75;;;19.87;48.85
57574;BME280;63722;48.858;21.906;2022-10-16T06:34:58;99293.41;;;19.87;48.99
57574;BME280;63722;48.858;21.906;2022-10-16T06:37:24;99291.09;;;19.91;48.84
57574;BME280;63722;48.858;21.906;2022-10-16T06:39:50;99295.97;;;19.94;48.94
57574;BME280;63722;48.858;21.906;2022-10-16T06:42:17;99307.22;;;19.96;48.68
57574;BME280;63722;48.858;21.906;2022-10-16T06:44:43;99294.81;;;19.90;48.86
57574;BME280;63722;48.858;21.906;2022-10-16T06:47:08;99303.97;;;19.94;48.73
57574;BME280;63722;48.858;21.906;2022-10-16T06:49:34;99308.84;;;19.97;48.64
57574;BME280;63722;48.858;21.906;2022-10-16T06:52:00;99301.91;;;19.96;48.74
57574;BME280;63722;48.858;21.906;2022-10-16T06:54:26;99310.91;;;19.95;48.78
57574;BME280;63722;48.858;21.906;2022-10-16T06:56:52;99324.00;;;19.96;48.89
57574;BME280;63722;48.858;21.906;2022-10-16T06:59:19;99330.97;;;19.97;48.95
57574;BME280;63722;48.858;21.906;2022-10-16T07:01:45;99318.47;;;19.98;48.91
57574;BME280;63722;48.858;21.906;2022-10-16T07:04:10;99321.13;;;19.98;48.86
57574;BME280;63722;48.858;21.906;2022-10-16T07:06:35;99316.38;;;20.00;48.65
57574;BME280;63722;48.858;21.906;2022-10-16T07:09:04;99331.09;;;20.02;48.72
57574;BME280;63722;48.858;21.906;2022-10-16T07:11:29;99327.19;;;20.05;48.72
57574;BME280;63722;48.858;21.906;2022-10-16T07:13:55;99322.88;;;20.04;48.79
57574;BME280;63722;48.858;21.906;2022-10-16T07:16:23;99306.63;;;19.94;48.67
57574;BME280;63722;48.858;21.906;2022-10-16T07:18:49;99329.63;;;20.07;48.73
57574;BME280;63722;48.858;21.906;2022-10-16T07:21:18;99326.97;;;20.07;48.72
57574;BME280;63722;48.858;21.906;2022-10-16T07:23:49;99323.47;;;20.06;48.55
57574;BME280;63722;48.858;21.906;2022-10-16T07:26:15;99329.00;;;20.04;48.73
57574;BME280;63722;48.858;21.906;2022-10-16T07:28:42;99343.50;;;20.09;48.59
57574;BME280;63722;48.858;21.906;2022-10-16T07:31:11;99341.06;;;20.07;48.59
57574;BME280;63722;48.858;21.906;2022-10-16T07:33:37;99341.88;;;20.08;48.92
57574;BME280;63722;48.858;21.906;2022-10-16T07:36:04;99345.59;;;20.07;48.69
57574;BME280;63722;48.858;21.906;2022-10-16T07:38:30;99346.41;;;20.07;48.88
57574;BME280;63722;48.858;21.906;2022-10-16T07:40:57;99347.19;;;20.08;48.88
57574;BME280;63722;48.858;21.906;2022-10-16T07:43:23;99359.72;;;20.07;48.76
57574;BME280;63722;48.858;21.906;2022-10-16T07:45:48;99363.41;;;20.06;48.66
57574;BME280;63722;48.858;21.906;2022-10-16T07:48:15;99365.47;;;20.04;48.73
57574;BME280;63722;48.858;21.906;2022-10-16T07:50:41;99362.59;;;20.06;48.65
57574;BME280;63722;48.858;21.906;2022-10-16T07:53:06;99362.81;;;20.04;48.79
57574;BME280;63722;48.858;21.906;2022-10-16T07:55:32;99355.06;;;20.02;48.88
57574;BME280;63722;48.858;21.906;2022-10-16T07:57:57;99363.63;;;20.04;48.61
57574;BME280;63722;48.858;21.906;2022-10-16T08:00:22;99360.16;;;20.04;48.68
57574;BME280;63722;48.858;21.906;2022-10-16T08:02:48;99360.38;;;20.02;48.65
57574;BME280;63722;48.858;21.906;2022-10-16T08:05:13;99359.59;;;20.02;48.97
57574;BME280;63722;48.858;21.906;2022-10-16T08:07:39;99356.31;;;20.00;48.78
57574;BME280;63722;48.858;21.906;2022-10-16T08:10:04;99361.63;;;20.00;48.92
57574;BME280;63722;48.858;21.906;2022-10-16T08:12:30;99374.94;;;20.00;48.76
57574;BME280;63722;48.858;21.906;2022-10-16T08:14:55;99370.22;;;20.02;48.85
57574;BME280;63722;48.858;21.906;2022-10-16T08:17:21;99366.97;;;20.00;48.87
57574;BME280;63722;48.858;21.906;2022-10-16T08:19:47;99366.38;;;19.98;49.00
57574;BME280;63722;48.858;21.906;2022-10-16T08:22:13;99366.16;;;19.99;48.85
57574;BME280;63722;48.858;21.906;2022-10-16T08:24:40;99369.84;;;19.98;48.76
57574;BME280;63722;48.858;21.906;2022-10-16T08:27:06;99369.03;;;19.98;49.06
57574;BME280;63722;48.858;21.906;2022-10-16T08:29:31;99372.50;;;19.98;48.90
57574;BME280;63722;48.858;21.906;2022-10-16T08:31:57;99378.06;;;19.97;48.88
57574;BME280;63722;48.858;21.906;2022-10-16T08:34:22;99377.25;;;19.96;48.96
57574;BME280;63722;48.858;21.906;2022-10-16T08:36:48;99387.09;;;19.96;49.00
57574;BME280;63722;48.858;21.906;2022-10-16T08:39:13;99393.00;;;19.98;48.83
57574;BME280;63722;48.858;21.906;2022-10-16T08:42:06;99395.66;;;19.98;48.99
57574;BME280;63722;48.858;21.906;2022-10-16T08:50:26;99393.22;;;19.96;48.98
57574;BME280;63722;48.858;21.906;2022-10-16T08:52:53;99393.22;;;19.96;48.94
57574;BME280;63722;48.858;21.906;2022-10-16T08:55:46;99383.00;;;19.93;48.83
57574;BME280;63722;48.858;21.906;2022-10-16T08:58:17;99395.06;;;19.96;48.94
57574;BME280;63722;48.858;21.906;2022-10-16T09:00:46;99382.22;;;19.93;49.09
57574;BME280;63722;48.858;21.906;2022-10-16T09:06:00;99393.44;;;19.95;49.04
57574;BME280;63722;48.858;21.906;2022-10-16T09:08:34;99386.47;;;19.94;49.08
57574;BME280;63722;48.858;21.906;2022-10-16T09:11:21;99399.78;;;19.94;48.95
57574;BME280;63722;48.858;21.906;2022-10-16T09:19:37;99402.91;;;19.91;49.13
57574;BME280;63722;48.858;21.906;2022-10-16T09:22:15;99394.91;;;19.91;49.17
57574;BME280;63722;48.858;21.906;2022-10-16T09:24:41;99402.31;;;19.89;49.24
57574;BME280;63722;48.858;21.906;2022-10-16T09:27:13;99400.22;;;19.91;49.02
57574;BME280;63722;48.858;21.906;2022-10-16T09:29:40;99392.25;;;19.91;48.61
57574;BME280;63722;48.858;21.906;2022-10-16T09:32:13;99402.91;;;19.91;49.17
57574;BME280;63722;48.858;21.906;2022-10-16T09:34:43;99398.84;;;19.88;48.97
57574;BME280;63722;48.858;21.906;2022-10-16T09:37:12;99398.63;;;19.90;49.03
57574;BME280;63722;48.858;21.906;2022-10-16T09:39:47;99393.31;;;19.90;49.34
57574;BME280;63722;48.858;21.906;2022-10-16T09:42:44;99399.66;;;19.89;49.01
57574;BME280;63722;48.858;21.906;2022-10-16T09:45:21;99391.66;;;19.89;49.17
57574;BME280;63722;48.858;21.906;2022-10-16T09:47:48;99392.09;;;19.85;49.16
57574;BME280;63722;48.858;21.906;2022-10-16T09:50:39;99401.50;;;19.88;49.04
57574;BME280;63722;48.858;21.906;2022-10-16T09:53:11;99399.66;;;19.89;49.32
57574;BME280;63722;48.858;21.906;2022-10-16T09:55:48;99395.34;;;19.88;49.05
57574;BME280;63722;48.858;21.906;2022-10-16T09:58:14;99391.66;;;19.89;49.06
57574;BME280;63722;48.858;21.906;2022-10-16T10:00:41;99395.13;;;19.89;48.97
57574;BME280;63722;48.858;21.906;2022-10-16T10:03:10;99402.31;;;19.89;49.01
57574;BME280;63722;48.858;21.906;2022-10-16T10:05:39;99391.66;;;19.89;49.08
57574;BME280;63722;48.858;21.906;2022-10-16T10:08:05;99390.88;;;19.88;49.00
57574;BME280;63722;48.858;21.906;2022-10-16T10:10:33;99387.97;;;19.90;49.13
57574;BME280;63722;48.858;21.906;2022-10-16T10:12:59;99376.72;;;19.88;48.99
57574;BME280;63722;48.858;21.906;2022-10-16T10:15:28;99382.88;;;19.88;49.00
57574;BME280;63722;48.858;21.906;2022-10-16T10:17:58;99382.25;;;19.86;48.91
57574;BME280;63722;48.858;21.906;2022-10-16T10:20:34;99377.34;;;19.90;49.06
57574;BME280;63722;48.858;21.906;2022-10-16T10:23:21;99378.13;;;19.90;49.03
57574;BME280;63722;48.858;21.906;2022-10-16T10:31:21;99372.00;;;19.90;48.92
57574;BME280;63722;48.858;21.906;2022-10-16T10:34:17;99362.38;;;19.89;48.99
57574;BME280;63722;48.858;21.906;2022-10-16T10:36:52;99361.38;;;19.90;48.97
57574;BME280;63722;48.858;21.906;2022-10-16T10:47:41;99359.28;;;19.92;49.04
57574;BME280;63722;48.858;21.906;2022-10-16T10:55:43;99357.41;;;19.92;49.00
57574;BME280;63722;48.858;21.906;2022-10-16T11:01:01;99355.59;;;19.93;48.88
57574;BME280;63722;48.858;21.906;2022-10-16T11:03:42;99348.63;;;19.92;48.83
57574;BME280;63722;48.858;21.906;2022-10-16T11:06:18;99347.59;;;19.93;49.10
57574;BME280;63722;48.858;21.906;2022-10-16T11:16:59;99362.75;;;19.92;48.94
57574;BME280;63722;48.858;21.906;2022-10-16T11:19:48;99361.50;;;19.95;49.02
57574;BME280;63722;48.858;21.906;2022-10-16T11:22:27;99365.19;;;19.94;49.07
57574;BME280;63722;48.858;21.906;2022-10-16T11:25:04;99363.34;;;19.94;49.06
57574;BME280;63722;48.858;21.906;2022-10-16T11:27:38;99357.19;;;19.94;48.83
57574;BME280;63722;48.858;21.906;2022-10-16T11:30:16;99359.28;;;19.92;48.91
57574;BME280;63722;48.858;21.906;2022-10-16T11:35:30;99344.94;;;19.93;48.88
57574;BME280;63722;48.858;21.906;2022-10-16T11:38:02;99347.38;;;19.94;49.02
57574;BME280;63722;48.858;21.906;2022-10-16T11:40:31;99339.63;;;19.93;49.22
57574;BME280;63722;48.858;21.906;2022-10-16T11:43:27;99344.72;;;19.94;48.93
57574;BME280;63722;48.858;21.906;2022-10-16T11:45:55;99348.19;;;19.95;48.88
57574;BME280;63722;48.858;21.906;2022-10-16T11:48:27;99342.88;;;19.95;48.99
57574;BME280;63722;48.858;21.906;2022-10-16T11:51:08;99352.47;;;19.96;49.01
57574;BME280;63722;48.858;21.906;2022-10-16T11:56:27;99341.44;;;19.92;48.96
57574;BME280;63722;48.858;21.906;2022-10-16T11:59:03;99337.19;;;19.91;48.95
57574;BME280;63722;48.858;21.906;2022-10-16T12:01:48;99343.31;;;19.92;48.83
57574;BME280;63722;48.858;21.906;2022-10-16T12:04:22;99345.97;;;19.92;48.96
57574;BME280;63722;48.858;21.906;2022-10-16T12:09:30;99345.97;;;19.92;49.02
57574;BME280;63722;48.858;21.906;2022-10-16T12:11:56;99339.00;;;19.91;49.06
57574;BME280;63722;48.858;21.906;2022-10-16T12:14:35;99332.53;;;19.87;48.96
57574;BME280;63722;48.858;21.906;2022-10-16T12:17:34;99333.47;;;19.92;48.68
57574;BME280;63722;48.858;21.906;2022-10-16T12:22:51;99337.63;;;19.88;48.83
57574;BME280;63722;48.858;21.906;2022-10-16T12:25:31;99348.41;;;19.93;48.97
57574;BME280;63722;48.858;21.906;2022-10-16T12:30:27;99339.84;;;19.91;48.92
57574;BME280;63722;48.858;21.906;2022-10-16T12:33:51;99336.97;;;19.93;49.01
57574;BME280;63722;48.858;21.906;2022-10-16T12:36:13;99332.66;;;19.92;48.89
57574;BME280;63722;48.858;21.906;2022-10-16T12:38:52;99339.00;;;19.91;49.04
57574;BME280;63722;48.858;21.906;2022-10-16T12:41:44;99337.19;;;19.91;48.88
57574;BME280;63722;48.858;21.906;2022-10-16T12:44:25;99341.66;;;19.91;48.95
57574;BME280;63722;48.858;21.906;2022-10-16T12:46:51;99346.19;;;19.90;48.99
57574;BME280;63722;48.858;21.906;2022-10-16T12:49:36;99348.06;;;19.90;48.86
57574;BME280;63722;48.858;21.906;2022-10-16T12:52:03;99352.53;;;19.89;49.18
57574;BME280;63722;48.858;21.906;2022-10-16T12:54:37;99351.53;;;19.90;49.05
57574;BME280;63722;48.858;21.906;2022-10-16T13:00:10;99364.03;;;19.90;49.13
57574;BME280;63722;48.858;21.906;2022-10-16T13:10:28;99375.69;;;19.89;49.07
57574;BME280;63722;48.858;21.906;2022-10-16T13:19:02;99375.69;;;19.89;49.11
57574;BME280;63722;48.858;21.906;2022-10-16T13:21:51;99370.59;;;19.87;49.04
57574;BME280;63722;48.858;21.906;2022-10-16T13:25:13;99377.78;;;19.87;49.13
57574;BME280;63722;48.858;21.906;2022-10-16T13:27:39;99376.13;;;19.85;49.09
57574;BME280;63722;48.858;21.906;2022-10-16T13:30:19;99377.78;;;19.87;48.96
57574;BME280;63722;48.858;21.906;2022-10-16T13:32:50;99370.44;;;19.82;49.22
57574;BME280;63722;48.858;21.906;2022-10-16T13:37:45;99388.88;;;19.83;49.02
57574;BME280;63722;48.858;21.906;2022-10-16T13:40:29;99389.88;;;19.82;49.15
57574;BME280;63722;48.858;21.906;2022-10-16T13:42:54;99388.88;;;19.83;49.14
57574;BME280;63722;48.858;21.906;2022-10-16T13:45:22;99389.66;;;19.84;49.10
57574;BME280;63722;48.858;21.906;2022-10-16T13:47:48;99383.53;;;19.83;49.13
57574;BME280;63722;48.858;21.906;2022-10-16T13:50:18;99384.56;;;19.82;49.02
57574;BME280;63722;48.858;21.906;2022-10-16T13:52:44;99388.03;;;19.83;49.21
57574;BME280;63722;48.858;21.906;2022-10-16T13:57:36;99396.25;;;19.81;49.21
57574;BME280;63722;48.858;21.906;2022-10-16T14:00:02;99396.25;;;19.81;49.23
57574;BME280;63722;48.858;21.906;2022-10-16T14:02:35;99414.88;;;19.81;49.22
57574;BME280;63722;48.858;21.906;2022-10-16T14:05:02;99406.88;;;19.81;49.02
57574;BME280;63722;48.858;21.906;2022-10-16T14:07:31;99400.75;;;19.81;49.06
57574;BME280;63722;48.858;21.906;2022-10-16T14:10:04;99410.59;;;19.80;49.23
57574;BME280;63722;48.858;21.906;2022-10-16T14:12:30;99402.63;;;19.80;49.15
57574;BME280;63722;48.858;21.906;2022-10-16T14:14:57;99398.91;;;19.81;49.25
57574;BME280;63722;48.858;21.906;2022-10-16T14:17:33;99403.63;;;19.79;49.10
57574;BME280;63722;48.858;21.906;2022-10-16T14:20:03;99408.75;;;19.81;49.16
57574;BME280;63722;48.858;21.906;2022-10-16T14:22:35;99414.28;;;19.79;49.10
57574;BME280;63722;48.858;21.906;2022-10-16T14:27:45;99408.16;;;19.79;49.27
57574;BME280;63722;48.858;21.906;2022-10-16T14:30:20;99411.63;;;19.79;49.26
57574;BME280;63722;48.858;21.906;2022-10-16T14:32:56;99410.59;;;19.80;49.24
57574;BME280;63722;48.858;21.906;2022-10-16T14:35:24;99404.03;;;19.76;49.09
57574;BME280;63722;48.858;21.906;2022-10-16T14:37:54;99408.97;;;19.79;49.33
57574;BME280;63722;48.858;21.906;2022-10-16T14:40:23;99408.16;;;19.79;49.14
57574;BME280;63722;48.858;21.906;2022-10-16T14:42:50;99407.53;;;19.77;49.48
57574;BME280;63722;48.858;21.906;2022-10-16T14:45:19;99411.84;;;19.78;49.31
57574;BME280;63722;48.858;21.906;2022-10-16T14:47:58;99407.31;;;19.78;49.26
57574;BME280;63722;48.858;21.906;2022-10-16T14:50:23;99411.03;;;19.77;49.22
57574;BME280;63722;48.858;21.906;2022-10-16T14:52:49;99411.03;;;19.77;49.29